Gunilla — SERW — position and weather

sailwx.info

Track history (hours):
 
Tides and Currents Weather Stations Pressure Air Temp Water Temp Dewpoint Dewpoint Depression Visibility Wind Speed Wind Dir Waves Ship Positions

Gunilla (Sweden)

Ship's website: http://www.gunilla.nu/engelsk/frameset_english.htm

Last reported at 2019-Jun-14 20:02 UTC. Time now 2019-Jun-16 01:27 UTC.
Position N 52°45' E 003°14'.

Length 49.4 m; beam 8.4 m; draft 2.7 m.

Type: . MMSI: 265318000.

Date/timePositionNaut miles runAvg speedWind from/ knotsBaromVisibWave heightAir tempDewpointWater temp
2019-Jun-14 20:02N 52°45' E 003°14'8 6.0
2019-Jun-14 18:44N 52°38' E 003°10'1 5.6
2019-Jun-14 18:30N 52°37' E 003°09'3 5.6
2019-Jun-14 17:54N 52°33' E 003°08'4 3.4
2019-Jun-14 16:53N 52°30' E 003°06'3 4.9
2019-Jun-14 16:18N 52°27' E 003°04'1 4.7
2019-Jun-14 15:59N 52°27' E 003°02'3 5.2
2019-Jun-14 15:30N 52°25' E 002°59'48 6.4
2019-Jun-14 08:00N 51°49' E 002°09'5 4.9
2019-Jun-14 06:58N 51°45' E 002°04'3 5.2
2019-Jun-14 06:20N 51°42' E 001°60'2 5.6
2019-Jun-14 06:00N 51°41' E 001°57'2 5.0
2019-Jun-14 05:30N 51°39' E 001°55'3 6.3
2019-Jun-14 05:00N 51°37' E 001°51'3 6.9
2019-Jun-14 04:30N 51°35' E 001°46'3 6.8
2019-Jun-14 04:00N 51°33' E 001°42'3 6.3
2019-Jun-14 03:30N 51°30' E 001°42'3 6.9
2019-Jun-14 03:00N 51°26' E 001°43'4 7.6
2019-Jun-14 02:30N 51°23' E 001°44'4 7.3
2019-Jun-14 02:00N 51°19' E 001°45'3 6.5
2019-Jun-14 01:30N 51°16' E 001°44'3 6.3
2019-Jun-14 01:00N 51°14' E 001°40'3 6.8
2019-Jun-14 00:30N 51°11' E 001°36'3 6.2
2019-Jun-14 00:00N 51°09' E 001°33'3 6.8
2019-Jun-13 23:30N 51°07' E 001°29'4 7.7
2019-Jun-13 23:00N 51°04' E 001°24'4 8.2
2019-Jun-13 22:29N 51°02' E 001°19'4 7.6
2019-Jun-13 22:00N 51°00' E 001°14'7 8.1
2019-Jun-13 21:10N 50°56' E 001°05'2 8.7
2019-Jun-13 21:00N 50°56' E 001°03'5 8.5
2019-Jun-13 20:28N 50°53' E 000°57'5 8.9
2019-Jun-13 19:57N 50°52' E 000°50'4 8.1
2019-Jun-13 19:30N 50°50' E 000°44'39 7.5
2019-Jun-13 14:22N 50°35' W 000°12'3 7.8
2019-Jun-13 13:59N 50°36' W 000°16'4 7.5
2019-Jun-13 13:28N 50°36' W 000°22'3 7.1
2019-Jun-13 13:00N 50°37' W 000°28'3 6.7
2019-Jun-13 12:30N 50°37' W 000°33'3 6.6
2019-Jun-13 12:00N 50°37' W 000°38'3 6.2
2019-Jun-13 11:30N 50°38' W 000°43'3 6.3
2019-Jun-13 11:00N 50°39' W 000°48'3 5.6
2019-Jun-13 10:30N 50°40' W 000°51'3 5.7
2019-Jun-13 10:00N 50°42' W 000°55'3 6.0
2019-Jun-13 09:30N 50°43' W 000°59'3 5.7
2019-Jun-13 09:00N 50°44' W 001°03'2 4.5
2019-Jun-13 08:30N 50°46' W 001°05'2 3.3
2019-Jun-13 07:57N 50°48' W 001°07'0 0.0
2019-Jun-13 07:31N 50°48' W 001°07'0 0.0
2019-Jun-13 06:58N 50°48' W 001°07'0 0.0
2019-Jun-13 06:28N 50°48' W 001°07'0 0.0
2019-Jun-13 06:01N 50°48' W 001°07'0 0.0
2019-Jun-13 05:27N 50°48' W 001°07'0 0.0
2019-Jun-13 05:01N 50°48' W 001°07'0 0.0
2019-Jun-13 04:31N 50°48' W 001°07'0 0.0
2019-Jun-13 04:01N 50°48' W 001°07'0 0.0
2019-Jun-13 03:30N 50°48' W 001°07'0 0.0
2019-Jun-13 03:00N 50°48' W 001°07'0 0.0
2019-Jun-13 02:31N 50°48' W 001°07'0 0.0
2019-Jun-13 02:00N 50°48' W 001°07'0 0.0
2019-Jun-13 01:27N 50°48' W 001°07'0 0.0
2019-Jun-13 00:58N 50°48' W 001°07'0 0.0
2019-Jun-13 00:31N 50°48' W 001°07'0 0.0
2019-Jun-12 23:57N 50°48' W 001°07'0 0.0
2019-Jun-12 23:28N 50°48' W 001°07'0 0.0
2019-Jun-12 23:01N 50°48' W 001°07'0 0.0
2019-Jun-12 22:27N 50°48' W 001°07'0 0.0
2019-Jun-12 22:00N 50°48' W 001°07'0 0.0
2019-Jun-12 21:28N 50°48' W 001°07'0 0.0
2019-Jun-12 21:00N 50°48' W 001°07'0 0.0
2019-Jun-12 20:30N 50°48' W 001°07'0 0.0
2019-Jun-12 20:00N 50°48' W 001°07'0 0.0
2019-Jun-12 19:30N 50°48' W 001°07'0 0.0
2019-Jun-12 19:00N 50°48' W 001°07'0 0.0
2019-Jun-12 18:30N 50°48' W 001°07'0 0.0
2019-Jun-12 18:00N 50°48' W 001°07'0 0.0
2019-Jun-12 17:30N 50°48' W 001°07'0 0.0
2019-Jun-12 17:00N 50°48' W 001°07'0 0.0
2019-Jun-12 16:30N 50°48' W 001°07'0 0.0
2019-Jun-12 16:01N 50°48' W 001°07'0 0.0
2019-Jun-12 15:31N 50°48' W 001°07'0 0.0
2019-Jun-12 15:00N 50°48' W 001°07'0 0.0
2019-Jun-12 14:31N 50°48' W 001°07'0 0.0
2019-Jun-12 14:01N 50°48' W 001°07'0 0.0
2019-Jun-12 13:30N 50°48' W 001°07'0 0.0
2019-Jun-12 13:00N 50°48' W 001°07'0 0.0
2019-Jun-12 12:30N 50°48' W 001°07'0 0.0
2019-Jun-12 12:00N 50°48' W 001°07'0 0.0
2019-Jun-12 11:30N 50°48' W 001°07'0 0.0
2019-Jun-12 11:00N 50°48' W 001°07'0 0.0
2019-Jun-12 10:30N 50°48' W 001°07'0 0.0
2019-Jun-12 10:00N 50°48' W 001°07'0 0.0
2019-Jun-12 09:30N 50°48' W 001°07'0 0.0
2019-Jun-12 08:57N 50°48' W 001°07'0 0.0
2019-Jun-12 08:30N 50°48' W 001°07'0 0.0
2019-Jun-12 08:00N 50°48' W 001°07'0 0.0
2019-Jun-12 07:30N 50°48' W 001°07'0 0.0
2019-Jun-12 07:00N 50°48' W 001°07'0 0.0
2019-Jun-12 06:21N 50°48' W 001°07'0 0.0
2019-Jun-12 05:57N 50°48' W 001°07'0 0.0
2019-Jun-12 05:27N 50°48' W 001°07'0 0.0
2019-Jun-12 05:00N 50°48' W 001°07'0 0.0
2019-Jun-12 04:30N 50°48' W 001°07'0 0.0
2019-Jun-12 03:57N 50°48' W 001°07'0 0.0
2019-Jun-12 03:30N 50°48' W 001°07'0 0.0
2019-Jun-12 02:57N 50°48' W 001°07'0 0.0
2019-Jun-12 02:00N 50°48' W 001°07'0 0.0
2019-Jun-12 01:30N 50°48' W 001°07'0 0.0
2019-Jun-12 00:57N 50°48' W 001°07'0 0.0
2019-Jun-12 00:30N 50°48' W 001°07'0 0.0
2019-Jun-12 00:00N 50°48' W 001°07'0 0.0
2019-Jun-11 23:30N 50°48' W 001°07'0 0.0
2019-Jun-11 23:00N 50°48' W 001°07'0 0.0
2019-Jun-11 22:27N 50°48' W 001°07'0 0.0
2019-Jun-11 21:57N 50°48' W 001°07'0 0.0
2019-Jun-11 21:24N 50°48' W 001°07'0 0.0
2019-Jun-11 21:00N 50°48' W 001°07'0 0.0
2019-Jun-11 20:30N 50°48' W 001°07'0 0.0
2019-Jun-11 20:00N 50°48' W 001°07'0 0.0
2019-Jun-11 19:30N 50°48' W 001°07'0 0.0
2019-Jun-11 19:00N 50°48' W 001°07'0 0.0
2019-Jun-11 18:30N 50°48' W 001°07'0 0.0
2019-Jun-11 18:00N 50°48' W 001°07'0 0.0
2019-Jun-11 17:30N 50°48' W 001°07'0 0.0
2019-Jun-11 17:00N 50°48' W 001°07'0 0.0
2019-Jun-11 16:18N 50°48' W 001°07'0 0.0
2019-Jun-11 16:00N 50°48' W 001°07'0 0.0
2019-Jun-11 15:24N 50°48' W 001°07'0 0.0
2019-Jun-11 15:00N 50°48' W 001°07'0 0.0
2019-Jun-11 14:24N 50°48' W 001°07'0 0.0
2019-Jun-11 13:54N 50°48' W 001°07'0 0.0
2019-Jun-11 13:30N 50°48' W 001°07'0 0.0
2019-Jun-11 13:00N 50°48' W 001°07'0 0.0
2019-Jun-11 12:30N 50°48' W 001°07'0 0.0
2019-Jun-11 12:00N 50°48' W 001°07'0 0.0
2019-Jun-11 11:30N 50°48' W 001°07'0 0.0
2019-Jun-11 11:00N 50°48' W 001°07'0 0.0
2019-Jun-11 10:30N 50°48' W 001°07'0 0.0
2019-Jun-11 10:00N 50°48' W 001°07'0 0.0
2019-Jun-11 09:30N 50°48' W 001°07'0 0.0
2019-Jun-11 09:00N 50°48' W 001°07'0 0.0
2019-Jun-11 08:30N 50°48' W 001°07'0 0.0
2019-Jun-11 08:00N 50°48' W 001°07'0 0.0
2019-Jun-11 07:27N 50°48' W 001°07'0 0.0
2019-Jun-11 06:57N 50°48' W 001°07'0 0.0
2019-Jun-11 06:27N 50°48' W 001°07'0 0.0
2019-Jun-11 05:57N 50°48' W 001°07'0 0.0
2019-Jun-11 05:30N 50°48' W 001°07'0 0.0
2019-Jun-11 05:00N 50°48' W 001°07'0 0.0
2019-Jun-11 04:30N 50°48' W 001°07'0 0.0
2019-Jun-11 03:57N 50°48' W 001°07'0 0.0
2019-Jun-11 03:30N 50°48' W 001°07'0 0.0
2019-Jun-11 02:57N 50°48' W 001°07'0 0.0
2019-Jun-11 02:24N 50°48' W 001°07'0 0.0
2019-Jun-11 02:00N 50°48' W 001°07'0 0.0
2019-Jun-11 01:30N 50°48' W 001°07'0 0.0
2019-Jun-11 01:00N 50°48' W 001°07'0 0.0
2019-Jun-11 00:30N 50°48' W 001°07'0 0.0
2019-Jun-11 00:00N 50°48' W 001°07'0 0.0
2019-Jun-10 23:30N 50°48' W 001°07'0 0.0
2019-Jun-10 22:54N 50°48' W 001°07'0 0.0
2019-Jun-10 22:27N 50°48' W 001°07'0 0.0
2019-Jun-10 21:57N 50°48' W 001°07'0 0.0
2019-Jun-10 21:18N 50°48' W 001°07'0 0.0
2019-Jun-10 21:00N 50°48' W 001°07'0 0.0
2019-Jun-10 20:30N 50°48' W 001°07'0 0.0
2019-Jun-10 20:00N 50°48' W 001°07'0 0.0
2019-Jun-10 19:30N 50°48' W 001°07'0 0.0
2019-Jun-10 18:57N 50°48' W 001°07'0 0.0
2019-Jun-10 18:30N 50°48' W 001°07'0 0.0
2019-Jun-10 18:00N 50°48' W 001°07'0 0.0
2019-Jun-10 17:30N 50°48' W 001°07'0 0.0
2019-Jun-10 17:00N 50°48' W 001°07'0 0.0
2019-Jun-10 16:30N 50°48' W 001°07'0 0.0
2019-Jun-10 16:00N 50°48' W 001°07'0 0.0
2019-Jun-10 15:30N 50°48' W 001°07'0 0.0
2019-Jun-10 15:00N 50°48' W 001°07'0 0.0
2019-Jun-10 14:30N 50°48' W 001°07'0 0.0
2019-Jun-10 14:00N 50°48' W 001°07'0 0.0
2019-Jun-10 13:30N 50°48' W 001°07'0 0.0
2019-Jun-10 13:00N 50°48' W 001°07'0 0.0
2019-Jun-10 12:30N 50°48' W 001°07'0 0.0
2019-Jun-10 12:00N 50°48' W 001°07'0 0.0
2019-Jun-10 11:30N 50°48' W 001°07'0 0.0
2019-Jun-10 11:00N 50°48' W 001°07'0 0.0
2019-Jun-10 10:30N 50°48' W 001°07'0 0.0
2019-Jun-10 10:00N 50°48' W 001°07'0 0.0
2019-Jun-10 09:30N 50°48' W 001°07'0 0.0
2019-Jun-10 09:00N 50°48' W 001°07'0 0.0
2019-Jun-10 08:30N 50°48' W 001°07'0 0.0
2019-Jun-10 08:00N 50°48' W 001°07'0 0.0
2019-Jun-10 07:30N 50°48' W 001°07'0 0.0
2019-Jun-10 07:00N 50°48' W 001°07'0 0.0
2019-Jun-10 06:27N 50°48' W 001°07'0 0.0
2019-Jun-10 06:00N 50°48' W 001°07'0 0.0
2019-Jun-10 05:24N 50°48' W 001°07'0 0.0
2019-Jun-10 04:57N 50°48' W 001°07'0 0.0
2019-Jun-10 04:24N 50°48' W 001°07'0 0.0
2019-Jun-10 04:00N 50°48' W 001°07'0 0.0
2019-Jun-10 03:30N 50°48' W 001°07'0 0.0
2019-Jun-10 03:00N 50°48' W 001°07'0 0.0
2019-Jun-10 02:27N 50°48' W 001°07'0 0.0
2019-Jun-10 02:00N 50°48' W 001°07'0 0.0
2019-Jun-10 01:30N 50°48' W 001°07'0 0.0
2019-Jun-10 01:00N 50°48' W 001°07'0 0.0
2019-Jun-10 00:30N 50°48' W 001°07'0 0.0
2019-Jun-09 23:54N 50°48' W 001°07'0 0.0
2019-Jun-09 23:27N 50°48' W 001°07'0 0.0
2019-Jun-09 22:42N 50°48' W 001°07'0 0.0
2019-Jun-09 22:30N 50°48' W 001°07'0 0.0
2019-Jun-09 22:00N 50°48' W 001°07'0 0.0
2019-Jun-09 21:30N 50°48' W 001°07'0 0.0
2019-Jun-09 21:00N 50°48' W 001°07'0 0.0
2019-Jun-09 20:30N 50°48' W 001°07'0 0.0
2019-Jun-09 20:00N 50°48' W 001°07'0 0.0
2019-Jun-09 19:30N 50°48' W 001°07'0 0.0
2019-Jun-09 19:00N 50°48' W 001°07'0 0.0
2019-Jun-09 18:30N 50°48' W 001°07'0 0.0
2019-Jun-09 18:00N 50°48' W 001°07'0 0.0
2019-Jun-09 17:30N 50°48' W 001°07'0 0.0
2019-Jun-09 17:00N 50°48' W 001°07'0 0.0
2019-Jun-09 16:30N 50°48' W 001°07'0 0.0
2019-Jun-09 16:00N 50°48' W 001°07'0 0.0
2019-Jun-09 15:30N 50°48' W 001°07'0 0.0
2019-Jun-09 15:00N 50°48' W 001°07'0 0.0
2019-Jun-09 14:30N 50°48' W 001°07'0 0.0
2019-Jun-09 14:00N 50°48' W 001°07'0 0.0
2019-Jun-09 13:30N 50°48' W 001°07'0 0.0
2019-Jun-09 12:57N 50°48' W 001°07'0 0.0
2019-Jun-09 12:30N 50°48' W 001°07'0 0.0
2019-Jun-09 12:00N 50°48' W 001°07'0 0.0
2019-Jun-09 11:30N 50°48' W 001°07'0 0.0
2019-Jun-09 10:57N 50°48' W 001°07'0 0.0
2019-Jun-09 10:30N 50°48' W 001°07'0 0.0
2019-Jun-09 10:00N 50°48' W 001°07'0 0.0
2019-Jun-09 09:27N 50°48' W 001°07'0 0.0
2019-Jun-09 08:57N 50°48' W 001°07'0 0.0
2019-Jun-09 08:30N 50°48' W 001°07'0 0.0
2019-Jun-09 08:00N 50°48' W 001°07'0 0.0
2019-Jun-09 07:30N 50°48' W 001°07'0 0.0
2019-Jun-09 06:57N 50°48' W 001°07'0 0.0
2019-Jun-09 06:30N 50°48' W 001°07'0 0.0
2019-Jun-09 06:00N 50°48' W 001°07'0 0.0
2019-Jun-09 05:27N 50°48' W 001°07'0 0.0
2019-Jun-09 05:00N 50°48' W 001°07'0 0.0
2019-Jun-09 04:00N 50°48' W 001°07'0 0.0
2019-Jun-09 03:30N 50°48' W 001°07'0 0.0
2019-Jun-09 03:00N 50°48' W 001°07'0 0.0
2019-Jun-09 02:30N 50°48' W 001°07'0 0.0
2019-Jun-09 02:00N 50°48' W 001°07'0 0.0
2019-Jun-09 01:30N 50°48' W 001°07'0 0.0
2019-Jun-09 01:00N 50°48' W 001°07'0 0.0
2019-Jun-09 00:30N 50°48' W 001°07'0 0.0
2019-Jun-09 00:00N 50°48' W 001°07'0 0.0
2019-Jun-08 23:30N 50°48' W 001°07'0 0.0
2019-Jun-08 23:00N 50°48' W 001°07'0 0.0
2019-Jun-08 22:30N 50°48' W 001°07'0 0.0
2019-Jun-08 22:00N 50°48' W 001°07'0 0.0
2019-Jun-08 21:30N 50°48' W 001°07'0 0.0
2019-Jun-08 21:00N 50°48' W 001°07'0 0.0
2019-Jun-08 20:30N 50°48' W 001°07'0 0.0
2019-Jun-08 20:00N 50°48' W 001°07'0 0.0
2019-Jun-08 19:30N 50°48' W 001°07'0 0.0
2019-Jun-08 19:00N 50°48' W 001°07'0 0.0
2019-Jun-08 18:30N 50°48' W 001°07'0 0.0
2019-Jun-08 17:57N 50°48' W 001°07'0 0.0
2019-Jun-08 17:30N 50°48' W 001°07'0 0.0
2019-Jun-08 17:00N 50°48' W 001°07'0 0.0
2019-Jun-08 16:30N 50°48' W 001°07'0 0.0
2019-Jun-08 16:00N 50°48' W 001°07'0 0.0
2019-Jun-08 15:30N 50°48' W 001°07'0 0.0
2019-Jun-08 15:00N 50°48' W 001°07'0 0.0
2019-Jun-08 14:30N 50°48' W 001°07'0 0.0
2019-Jun-08 14:00N 50°48' W 001°07'0 0.0
2019-Jun-08 13:30N 50°48' W 001°07'0 0.0
2019-Jun-08 13:00N 50°48' W 001°07'0 0.0
2019-Jun-08 12:27N 50°48' W 001°07'0 0.0
2019-Jun-08 12:00N 50°48' W 001°07'0 0.0
2019-Jun-08 11:30N 50°48' W 001°07'0 0.0
2019-Jun-08 11:00N 50°48' W 001°07'0 0.0
2019-Jun-08 10:30N 50°48' W 001°07'0 0.0
2019-Jun-08 10:00N 50°48' W 001°07'0 0.0
2019-Jun-08 09:30N 50°48' W 001°07'0 0.0
2019-Jun-08 09:00N 50°48' W 001°07'0 0.0
2019-Jun-08 08:30N 50°48' W 001°07'0 0.0
2019-Jun-08 08:00N 50°48' W 001°07'0 0.0
2019-Jun-08 07:27N 50°48' W 001°07'0 0.0
2019-Jun-08 07:00N 50°48' W 001°07'0 0.0
2019-Jun-08 06:30N 50°48' W 001°07'0 0.0
2019-Jun-08 06:00N 50°48' W 001°07'0 0.0
2019-Jun-08 05:30N 50°48' W 001°07'0 0.0
2019-Jun-08 05:00N 50°48' W 001°07'0 0.0
2019-Jun-08 04:30N 50°48' W 001°07'0 0.0
2019-Jun-08 04:00N 50°48' W 001°07'0 0.0
2019-Jun-08 03:30N 50°48' W 001°07'0 0.0
2019-Jun-08 03:00N 50°48' W 001°07'0 0.0
2019-Jun-08 02:30N 50°48' W 001°07'0 0.0
2019-Jun-08 02:00N 50°48' W 001°07'0 0.0
2019-Jun-08 01:27N 50°48' W 001°07'0 0.0
2019-Jun-08 01:00N 50°48' W 001°07'0 0.0
2019-Jun-08 00:30N 50°48' W 001°07'0 0.0
2019-Jun-08 00:00N 50°48' W 001°07'0 0.0
2019-Jun-07 23:30N 50°48' W 001°07'0 0.0
2019-Jun-07 23:00N 50°48' W 001°07'0 0.0
2019-Jun-07 22:30N 50°48' W 001°07'0 0.0
2019-Jun-07 22:00N 50°48' W 001°07'0 0.0
2019-Jun-07 21:30N 50°48' W 001°07'0 0.0
2019-Jun-07 21:00N 50°48' W 001°07'0 0.0
2019-Jun-07 20:30N 50°48' W 001°07'0 0.0
2019-Jun-07 20:00N 50°48' W 001°07'0 0.0
2019-Jun-07 19:30N 50°48' W 001°07'0 0.0
2019-Jun-07 19:00N 50°48' W 001°07'0 0.0
2019-Jun-07 18:30N 50°48' W 001°07'0 0.0
2019-Jun-07 18:00N 50°48' W 001°07'0 0.0
2019-Jun-07 17:30N 50°48' W 001°07'0 0.0
2019-Jun-07 17:00N 50°48' W 001°07'0 0.0
2019-Jun-07 16:30N 50°48' W 001°07'0 0.0
2019-Jun-07 16:00N 50°48' W 001°07'0 0.0
2019-Jun-07 15:30N 50°48' W 001°07'0 0.0
2019-Jun-07 15:00N 50°48' W 001°07'0 0.0
2019-Jun-07 14:30N 50°48' W 001°07'0 0.0
2019-Jun-07 14:00N 50°48' W 001°07'0 0.0
2019-Jun-07 13:30N 50°48' W 001°07'0 0.0
2019-Jun-07 13:00N 50°48' W 001°07'0 0.0
2019-Jun-07 12:30N 50°48' W 001°07'0 0.0
2019-Jun-07 12:00N 50°48' W 001°07'0 0.0
2019-Jun-07 11:30N 50°48' W 001°07'0 0.0
2019-Jun-07 11:00N 50°48' W 001°07'0 0.0
2019-Jun-07 10:30N 50°48' W 001°07'0 0.0
2019-Jun-07 10:00N 50°48' W 001°07'0 0.0
2019-Jun-07 09:30N 50°48' W 001°07'0 0.0
2019-Jun-07 09:00N 50°48' W 001°07'1 2.0
2019-Jun-07 08:30N 50°47' W 001°06'3 6.4
2019-Jun-07 08:00N 50°44' W 001°04'1 1.6
2019-Jun-07 07:30N 50°43' W 001°04'0 0.1
2019-Jun-07 06:06N 50°43' W 001°04'0 0.1
2019-Jun-07 06:00N 50°43' W 001°04'0 0.0
2019-Jun-07 05:30N 50°43' W 001°04'0 0.0
2019-Jun-07 03:51N 50°43' W 001°04'0 0.0
2019-Jun-07 03:21N 50°43' W 001°04'0 0.0
2019-Jun-07 02:51N 50°43' W 001°04'0 0.0
2019-Jun-07 02:00N 50°43' W 001°04'0 0.0
2019-Jun-07 00:39N 50°43' W 001°04'0 0.0
2019-Jun-07 00:11N 50°43' W 001°04'0 0.0
2019-Jun-06 23:39N 50°43' W 001°04'0 0.0
2019-Jun-06 23:27N 50°43' W 001°04'0 0.0
2019-Jun-06 22:59N 50°43' W 001°04'0 0.0
2019-Jun-06 22:24N 50°43' W 001°04'0 0.0
2019-Jun-06 21:54N 50°43' W 001°04'0 0.0
2019-Jun-06 20:51N 50°43' W 001°04'0 0.0
2019-Jun-06 20:11N 50°43' W 001°04'0 0.0
2019-Jun-06 19:54N 50°43' W 001°04'0 0.0
2019-Jun-06 19:27N 50°43' W 001°04'0 0.0
2019-Jun-06 18:59N 50°43' W 001°04'0 0.1
2019-Jun-06 18:27N 50°43' W 001°04'0 0.0
2019-Jun-06 17:18N 50°43' W 001°04'0 0.0
2019-Jun-06 16:57N 50°43' W 001°04'0 0.0
2019-Jun-06 16:30N 50°43' W 001°04'0 0.1
2019-Jun-06 15:48N 50°43' W 001°04'0 0.0
2019-Jun-06 15:30N 50°43' W 001°04'0 0.0
2019-Jun-06 14:59N 50°43' W 001°04'0 0.0
2019-Jun-06 14:29N 50°43' W 001°04'0 0.0
2019-Jun-06 13:59N 50°43' W 001°04'0 0.0
2019-Jun-06 13:20N 50°43' W 001°04'0 0.0
2019-Jun-06 12:50N 50°43' W 001°04'0 0.0
2019-Jun-06 12:24N 50°43' W 001°04'0 0.0
2019-Jun-06 11:50N 50°43' W 001°04'0 0.0
2019-Jun-06 11:23N 50°43' W 001°04'0 0.0
2019-Jun-06 10:57N 50°43' W 001°04'0 0.0
2019-Jun-06 10:23N 50°43' W 001°04'0 0.1
2019-Jun-06 09:53N 50°43' W 001°04'0 0.0
2019-Jun-06 09:27N 50°43' W 001°04'0 0.0
2019-Jun-06 08:39N 50°43' W 001°04'0 0.1
2019-Jun-06 08:11N 50°43' W 001°04'0 0.0
2019-Jun-06 07:57N 50°43' W 001°04'0 0.0
2019-Jun-06 07:26N 50°43' W 001°04'0 0.0
2019-Jun-06 06:38N 50°43' W 001°04'0 0.0
2019-Jun-06 06:26N 50°43' W 001°04'0 0.1
2019-Jun-06 05:59N 50°43' W 001°04'0 0.0
2019-Jun-06 05:11N 50°43' W 001°04'0 0.0
2019-Jun-06 04:03N 50°43' W 001°04'0 0.0
2019-Jun-06 03:59N 50°43' W 001°04'0 0.1
2019-Jun-06 03:11N 50°43' W 001°04'0 0.0
2019-Jun-06 02:47N 50°43' W 001°04'0 0.0
2019-Jun-06 02:14N 50°43' W 001°04'0 0.0
2019-Jun-06 01:59N 50°43' W 001°04'0 0.0
2019-Jun-06 01:26N 50°43' W 001°04'0 0.0
2019-Jun-06 00:47N 50°43' W 001°04'0 0.0
2019-Jun-06 00:29N 50°43' W 001°04'0 0.0
2019-Jun-05 23:59N 50°43' W 001°04'0 0.0
2019-Jun-05 23:24N 50°43' W 001°04'1 2.3
2019-Jun-05 23:00N 50°43' W 001°03'4 7.2
2019-Jun-05 22:30N 50°39' W 001°05'4 7.9
2019-Jun-05 22:01N 50°36' W 001°08'6 8.4
2019-Jun-05 21:15N 50°31' W 001°14'2 7.5
2019-Jun-05 21:00N 50°30' W 001°16'56 4.2
2019-Jun-05 07:46N 50°21' W 002°43'1 5.3
2019-Jun-05 07:30N 50°21' W 002°45'3 5.1
2019-Jun-05 07:00N 50°20' W 002°49'2 4.8
2019-Jun-05 06:30N 50°20' W 002°53'2 4.9
2019-Jun-05 06:00N 50°20' W 002°56'2 4.8
2019-Jun-05 05:30N 50°20' W 003°00'3 5.1
2019-Jun-05 05:00N 50°18' W 003°03'3 5.1
2019-Jun-05 04:30N 50°16' W 003°06'3 5.0
2019-Jun-05 04:00N 50°14' W 003°08'2 4.4
2019-Jun-05 03:30N 50°12' W 003°11'2 4.1
2019-Jun-05 03:00N 50°11' W 003°13'2 3.3
2019-Jun-05 02:30N 50°10' W 003°15'1 2.8
2019-Jun-05 02:00N 50°09' W 003°17'1 2.6
2019-Jun-05 01:30N 50°09' W 003°18'1 2.9
2019-Jun-05 01:00N 50°08' W 003°20'2 3.7
2019-Jun-05 00:30N 50°07' W 003°23'2 4.3
2019-Jun-05 00:00N 50°06' W 003°26'2 3.8
2019-Jun-04 23:30N 50°05' W 003°28'2 4.4
2019-Jun-04 23:00N 50°05' W 003°32'3 5.3
2019-Jun-04 22:30N 50°04' W 003°36'3 6.4
2019-Jun-04 22:00N 50°04' W 003°41'4 7.1
2019-Jun-04 21:30N 50°03' W 003°46'4 7.0
2019-Jun-04 21:00N 50°02' W 003°51'4 7.3
2019-Jun-04 20:30N 50°01' W 003°57'  
Track history (hours):
 
Tides and Currents Weather Stations Pressure Air Temp Water Temp Dewpoint Dewpoint Depression Visibility Wind Speed Wind Dir Waves Ship Positions

Gunilla (Sweden)

Ship's website: http://www.gunilla.nu/engelsk/frameset_english.htm

Last reported at 2019-Jun-14 20:02 UTC. Time now 2019-Jun-16 01:27 UTC.
Position N 52°45' E 003°14'.

Length 49.4 m; beam 8.4 m; draft 2.7 m.

Type: . MMSI: 265318000.

Date/timePositionNaut miles runAvg speedWind from/ knotsBaromVisibWave heightAir tempDewpointWater temp
2019-Jun-14 20:02N 52°45' E 003°14'8 6.0
2019-Jun-14 18:44N 52°38' E 003°10'1 5.6
2019-Jun-14 18:30N 52°37' E 003°09'3 5.6
2019-Jun-14 17:54N 52°33' E 003°08'4 3.4
2019-Jun-14 16:53N 52°30' E 003°06'3 4.9
2019-Jun-14 16:18N 52°27' E 003°04'1 4.7
2019-Jun-14 15:59N 52°27' E 003°02'3 5.2
2019-Jun-14 15:30N 52°25' E 002°59'48 6.4
2019-Jun-14 08:00N 51°49' E 002°09'5 4.9
2019-Jun-14 06:58N 51°45' E 002°04'3 5.2
2019-Jun-14 06:20N 51°42' E 001°60'2 5.6
2019-Jun-14 06:00N 51°41' E 001°57'2 5.0
2019-Jun-14 05:30N 51°39' E 001°55'3 6.3
2019-Jun-14 05:00N 51°37' E 001°51'3 6.9
2019-Jun-14 04:30N 51°35' E 001°46'3 6.8
2019-Jun-14 04:00N 51°33' E 001°42'3 6.3
2019-Jun-14 03:30N 51°30' E 001°42'3 6.9
2019-Jun-14 03:00N 51°26' E 001°43'4 7.6
2019-Jun-14 02:30N 51°23' E 001°44'4 7.3
2019-Jun-14 02:00N 51°19' E 001°45'3 6.5
2019-Jun-14 01:30N 51°16' E 001°44'3 6.3
2019-Jun-14 01:00N 51°14' E 001°40'3 6.8
2019-Jun-14 00:30N 51°11' E 001°36'3 6.2
2019-Jun-14 00:00N 51°09' E 001°33'3 6.8
2019-Jun-13 23:30N 51°07' E 001°29'4 7.7
2019-Jun-13 23:00N 51°04' E 001°24'4 8.2
2019-Jun-13 22:29N 51°02' E 001°19'4 7.6
2019-Jun-13 22:00N 51°00' E 001°14'7 8.1
2019-Jun-13 21:10N 50°56' E 001°05'2 8.7
2019-Jun-13 21:00N 50°56' E 001°03'5 8.5
2019-Jun-13 20:28N 50°53' E 000°57'5 8.9
2019-Jun-13 19:57N 50°52' E 000°50'4 8.1
2019-Jun-13 19:30N 50°50' E 000°44'39 7.5
2019-Jun-13 14:22N 50°35' W 000°12'3 7.8
2019-Jun-13 13:59N 50°36' W 000°16'4 7.5
2019-Jun-13 13:28N 50°36' W 000°22'3 7.1
2019-Jun-13 13:00N 50°37' W 000°28'3 6.7
2019-Jun-13 12:30N 50°37' W 000°33'3 6.6
2019-Jun-13 12:00N 50°37' W 000°38'3 6.2
2019-Jun-13 11:30N 50°38' W 000°43'3 6.3
2019-Jun-13 11:00N 50°39' W 000°48'3 5.6
2019-Jun-13 10:30N 50°40' W 000°51'3 5.7
2019-Jun-13 10:00N 50°42' W 000°55'3 6.0
2019-Jun-13 09:30N 50°43' W 000°59'3 5.7
2019-Jun-13 09:00N 50°44' W 001°03'2 4.5
2019-Jun-13 08:30N 50°46' W 001°05'2 3.3
2019-Jun-13 07:57N 50°48' W 001°07'0 0.0
2019-Jun-13 07:31N 50°48' W 001°07'0 0.0
2019-Jun-13 06:58N 50°48' W 001°07'0 0.0
2019-Jun-13 06:28N 50°48' W 001°07'0 0.0
2019-Jun-13 06:01N 50°48' W 001°07'0 0.0
2019-Jun-13 05:27N 50°48' W 001°07'0 0.0
2019-Jun-13 05:01N 50°48' W 001°07'0 0.0
2019-Jun-13 04:31N 50°48' W 001°07'0 0.0
2019-Jun-13 04:01N 50°48' W 001°07'0 0.0
2019-Jun-13 03:30N 50°48' W 001°07'0 0.0
2019-Jun-13 03:00N 50°48' W 001°07'0 0.0
2019-Jun-13 02:31N 50°48' W 001°07'0 0.0
2019-Jun-13 02:00N 50°48' W 001°07'0 0.0
2019-Jun-13 01:27N 50°48' W 001°07'0 0.0
2019-Jun-13 00:58N 50°48' W 001°07'0 0.0
2019-Jun-13 00:31N 50°48' W 001°07'0 0.0
2019-Jun-12 23:57N 50°48' W 001°07'0 0.0
2019-Jun-12 23:28N 50°48' W 001°07'0 0.0
2019-Jun-12 23:01N 50°48' W 001°07'0 0.0
2019-Jun-12 22:27N 50°48' W 001°07'0 0.0
2019-Jun-12 22:00N 50°48' W 001°07'0 0.0
2019-Jun-12 21:28N 50°48' W 001°07'0 0.0
2019-Jun-12 21:00N 50°48' W 001°07'0 0.0
2019-Jun-12 20:30N 50°48' W 001°07'0 0.0
2019-Jun-12 20:00N 50°48' W 001°07'0 0.0
2019-Jun-12 19:30N 50°48' W 001°07'0 0.0
2019-Jun-12 19:00N 50°48' W 001°07'0 0.0
2019-Jun-12 18:30N 50°48' W 001°07'0 0.0
2019-Jun-12 18:00N 50°48' W 001°07'0 0.0
2019-Jun-12 17:30N 50°48' W 001°07'0 0.0
2019-Jun-12 17:00N 50°48' W 001°07'0 0.0
2019-Jun-12 16:30N 50°48' W 001°07'0 0.0
2019-Jun-12 16:01N 50°48' W 001°07'0 0.0
2019-Jun-12 15:31N 50°48' W 001°07'0 0.0
2019-Jun-12 15:00N 50°48' W 001°07'0 0.0
2019-Jun-12 14:31N 50°48' W 001°07'0 0.0
2019-Jun-12 14:01N 50°48' W 001°07'0 0.0
2019-Jun-12 13:30N 50°48' W 001°07'0 0.0
2019-Jun-12 13:00N 50°48' W 001°07'0 0.0
2019-Jun-12 12:30N 50°48' W 001°07'0 0.0
2019-Jun-12 12:00N 50°48' W 001°07'0 0.0
2019-Jun-12 11:30N 50°48' W 001°07'0 0.0
2019-Jun-12 11:00N 50°48' W 001°07'0 0.0
2019-Jun-12 10:30N 50°48' W 001°07'0 0.0
2019-Jun-12 10:00N 50°48' W 001°07'0 0.0
2019-Jun-12 09:30N 50°48' W 001°07'0 0.0
2019-Jun-12 08:57N 50°48' W 001°07'0 0.0
2019-Jun-12 08:30N 50°48' W 001°07'0 0.0
2019-Jun-12 08:00N 50°48' W 001°07'0 0.0
2019-Jun-12 07:30N 50°48' W 001°07'0 0.0
2019-Jun-12 07:00N 50°48' W 001°07'0 0.0
2019-Jun-12 06:21N 50°48' W 001°07'0 0.0
2019-Jun-12 05:57N 50°48' W 001°07'0 0.0
2019-Jun-12 05:27N 50°48' W 001°07'0 0.0
2019-Jun-12 05:00N 50°48' W 001°07'0 0.0
2019-Jun-12 04:30N 50°48' W 001°07'0 0.0
2019-Jun-12 03:57N 50°48' W 001°07'0 0.0
2019-Jun-12 03:30N 50°48' W 001°07'0 0.0
2019-Jun-12 02:57N 50°48' W 001°07'0 0.0
2019-Jun-12 02:00N 50°48' W 001°07'0 0.0
2019-Jun-12 01:30N 50°48' W 001°07'0 0.0
2019-Jun-12 00:57N 50°48' W 001°07'0 0.0
2019-Jun-12 00:30N 50°48' W 001°07'0 0.0
2019-Jun-12 00:00N 50°48' W 001°07'0 0.0
2019-Jun-11 23:30N 50°48' W 001°07'0 0.0
2019-Jun-11 23:00N 50°48' W 001°07'0 0.0
2019-Jun-11 22:27N 50°48' W 001°07'0 0.0
2019-Jun-11 21:57N 50°48' W 001°07'0 0.0
2019-Jun-11 21:24N 50°48' W 001°07'0 0.0
2019-Jun-11 21:00N 50°48' W 001°07'0 0.0
2019-Jun-11 20:30N 50°48' W 001°07'0 0.0
2019-Jun-11 20:00N 50°48' W 001°07'0 0.0
2019-Jun-11 19:30N 50°48' W 001°07'0 0.0
2019-Jun-11 19:00N 50°48' W 001°07'0 0.0
2019-Jun-11 18:30N 50°48' W 001°07'0 0.0
2019-Jun-11 18:00N 50°48' W 001°07'0 0.0
2019-Jun-11 17:30N 50°48' W 001°07'0 0.0
2019-Jun-11 17:00N 50°48' W 001°07'0 0.0
2019-Jun-11 16:18N 50°48' W 001°07'0 0.0
2019-Jun-11 16:00N 50°48' W 001°07'0 0.0
2019-Jun-11 15:24N 50°48' W 001°07'0 0.0
2019-Jun-11 15:00N 50°48' W 001°07'0 0.0
2019-Jun-11 14:24N 50°48' W 001°07'0 0.0
2019-Jun-11 13:54N 50°48' W 001°07'0 0.0
2019-Jun-11 13:30N 50°48' W 001°07'0 0.0
2019-Jun-11 13:00N 50°48' W 001°07'0 0.0
2019-Jun-11 12:30N 50°48' W 001°07'0 0.0
2019-Jun-11 12:00N 50°48' W 001°07'0 0.0
2019-Jun-11 11:30N 50°48' W 001°07'0 0.0
2019-Jun-11 11:00N 50°48' W 001°07'0 0.0
2019-Jun-11 10:30N 50°48' W 001°07'0 0.0
2019-Jun-11 10:00N 50°48' W 001°07'0 0.0
2019-Jun-11 09:30N 50°48' W 001°07'0 0.0
2019-Jun-11 09:00N 50°48' W 001°07'0 0.0
2019-Jun-11 08:30N 50°48' W 001°07'0 0.0
2019-Jun-11 08:00N 50°48' W 001°07'0 0.0
2019-Jun-11 07:27N 50°48' W 001°07'0 0.0
2019-Jun-11 06:57N 50°48' W 001°07'0 0.0
2019-Jun-11 06:27N 50°48' W 001°07'0 0.0
2019-Jun-11 05:57N 50°48' W 001°07'0 0.0
2019-Jun-11 05:30N 50°48' W 001°07'0 0.0
2019-Jun-11 05:00N 50°48' W 001°07'0 0.0
2019-Jun-11 04:30N 50°48' W 001°07'0 0.0
2019-Jun-11 03:57N 50°48' W 001°07'0 0.0
2019-Jun-11 03:30N 50°48' W 001°07'0 0.0
2019-Jun-11 02:57N 50°48' W 001°07'0 0.0
2019-Jun-11 02:24N 50°48' W 001°07'0 0.0
2019-Jun-11 02:00N 50°48' W 001°07'0 0.0
2019-Jun-11 01:30N 50°48' W 001°07'0 0.0
2019-Jun-11 01:00N 50°48' W 001°07'0 0.0
2019-Jun-11 00:30N 50°48' W 001°07'0 0.0
2019-Jun-11 00:00N 50°48' W 001°07'0 0.0
2019-Jun-10 23:30N 50°48' W 001°07'0 0.0
2019-Jun-10 22:54N 50°48' W 001°07'0 0.0
2019-Jun-10 22:27N 50°48' W 001°07'0 0.0
2019-Jun-10 21:57N 50°48' W 001°07'0 0.0
2019-Jun-10 21:18N 50°48' W 001°07'0 0.0
2019-Jun-10 21:00N 50°48' W 001°07'0 0.0
2019-Jun-10 20:30N 50°48' W 001°07'0 0.0
2019-Jun-10 20:00N 50°48' W 001°07'0 0.0
2019-Jun-10 19:30N 50°48' W 001°07'0 0.0
2019-Jun-10 18:57N 50°48' W 001°07'0 0.0
2019-Jun-10 18:30N 50°48' W 001°07'0 0.0
2019-Jun-10 18:00N 50°48' W 001°07'0 0.0
2019-Jun-10 17:30N 50°48' W 001°07'0 0.0
2019-Jun-10 17:00N 50°48' W 001°07'0 0.0
2019-Jun-10 16:30N 50°48' W 001°07'0 0.0
2019-Jun-10 16:00N 50°48' W 001°07'0 0.0
2019-Jun-10 15:30N 50°48' W 001°07'0 0.0
2019-Jun-10 15:00N 50°48' W 001°07'0 0.0
2019-Jun-10 14:30N 50°48' W 001°07'0 0.0
2019-Jun-10 14:00N 50°48' W 001°07'0 0.0
2019-Jun-10 13:30N 50°48' W 001°07'0 0.0
2019-Jun-10 13:00N 50°48' W 001°07'0 0.0
2019-Jun-10 12:30N 50°48' W 001°07'0 0.0
2019-Jun-10 12:00N 50°48' W 001°07'0 0.0
2019-Jun-10 11:30N 50°48' W 001°07'0 0.0
2019-Jun-10 11:00N 50°48' W 001°07'0 0.0
2019-Jun-10 10:30N 50°48' W 001°07'0 0.0
2019-Jun-10 10:00N 50°48' W 001°07'0 0.0
2019-Jun-10 09:30N 50°48' W 001°07'0 0.0
2019-Jun-10 09:00N 50°48' W 001°07'0 0.0
2019-Jun-10 08:30N 50°48' W 001°07'0 0.0
2019-Jun-10 08:00N 50°48' W 001°07'0 0.0
2019-Jun-10 07:30N 50°48' W 001°07'0 0.0
2019-Jun-10 07:00N 50°48' W 001°07'0 0.0
2019-Jun-10 06:27N 50°48' W 001°07'0 0.0
2019-Jun-10 06:00N 50°48' W 001°07'0 0.0
2019-Jun-10 05:24N 50°48' W 001°07'0 0.0
2019-Jun-10 04:57N 50°48' W 001°07'0 0.0
2019-Jun-10 04:24N 50°48' W 001°07'0 0.0
2019-Jun-10 04:00N 50°48' W 001°07'0 0.0
2019-Jun-10 03:30N 50°48' W 001°07'0 0.0
2019-Jun-10 03:00N 50°48' W 001°07'0 0.0
2019-Jun-10 02:27N 50°48' W 001°07'0 0.0
2019-Jun-10 02:00N 50°48' W 001°07'0 0.0
2019-Jun-10 01:30N 50°48' W 001°07'0 0.0
2019-Jun-10 01:00N 50°48' W 001°07'0 0.0
2019-Jun-10 00:30N 50°48' W 001°07'0 0.0
2019-Jun-09 23:54N 50°48' W 001°07'0 0.0
2019-Jun-09 23:27N 50°48' W 001°07'0 0.0
2019-Jun-09 22:42N 50°48' W 001°07'0 0.0
2019-Jun-09 22:30N 50°48' W 001°07'0 0.0
2019-Jun-09 22:00N 50°48' W 001°07'0 0.0
2019-Jun-09 21:30N 50°48' W 001°07'0 0.0
2019-Jun-09 21:00N 50°48' W 001°07'0 0.0
2019-Jun-09 20:30N 50°48' W 001°07'0 0.0
2019-Jun-09 20:00N 50°48' W 001°07'0 0.0
2019-Jun-09 19:30N 50°48' W 001°07'0 0.0
2019-Jun-09 19:00N 50°48' W 001°07'0 0.0
2019-Jun-09 18:30N 50°48' W 001°07'0 0.0
2019-Jun-09 18:00N 50°48' W 001°07'0 0.0
2019-Jun-09 17:30N 50°48' W 001°07'0 0.0
2019-Jun-09 17:00N 50°48' W 001°07'0 0.0
2019-Jun-09 16:30N 50°48' W 001°07'0 0.0
2019-Jun-09 16:00N 50°48' W 001°07'0 0.0
2019-Jun-09 15:30N 50°48' W 001°07'0 0.0
2019-Jun-09 15:00N 50°48' W 001°07'0 0.0
2019-Jun-09 14:30N 50°48' W 001°07'0 0.0
2019-Jun-09 14:00N 50°48' W 001°07'0 0.0
2019-Jun-09 13:30N 50°48' W 001°07'0 0.0
2019-Jun-09 12:57N 50°48' W 001°07'0 0.0
2019-Jun-09 12:30N 50°48' W 001°07'0 0.0
2019-Jun-09 12:00N 50°48' W 001°07'0 0.0
2019-Jun-09 11:30N 50°48' W 001°07'0 0.0
2019-Jun-09 10:57N 50°48' W 001°07'0 0.0
2019-Jun-09 10:30N 50°48' W 001°07'0 0.0
2019-Jun-09 10:00N 50°48' W 001°07'0 0.0
2019-Jun-09 09:27N 50°48' W 001°07'0 0.0
2019-Jun-09 08:57N 50°48' W 001°07'0 0.0
2019-Jun-09 08:30N 50°48' W 001°07'0 0.0
2019-Jun-09 08:00N 50°48' W 001°07'0 0.0
2019-Jun-09 07:30N 50°48' W 001°07'0 0.0
2019-Jun-09 06:57N 50°48' W 001°07'0 0.0
2019-Jun-09 06:30N 50°48' W 001°07'0 0.0
2019-Jun-09 06:00N 50°48' W 001°07'0 0.0
2019-Jun-09 05:27N 50°48' W 001°07'0 0.0
2019-Jun-09 05:00N 50°48' W 001°07'0 0.0
2019-Jun-09 04:00N 50°48' W 001°07'0 0.0
2019-Jun-09 03:30N 50°48' W 001°07'0 0.0
2019-Jun-09 03:00N 50°48' W 001°07'0 0.0
2019-Jun-09 02:30N 50°48' W 001°07'0 0.0
2019-Jun-09 02:00N 50°48' W 001°07'0 0.0
2019-Jun-09 01:30N 50°48' W 001°07'0 0.0
2019-Jun-09 01:00N 50°48' W 001°07'0 0.0
2019-Jun-09 00:30N 50°48' W 001°07'0 0.0
2019-Jun-09 00:00N 50°48' W 001°07'0 0.0
2019-Jun-08 23:30N 50°48' W 001°07'0 0.0
2019-Jun-08 23:00N 50°48' W 001°07'0 0.0
2019-Jun-08 22:30N 50°48' W 001°07'0 0.0
2019-Jun-08 22:00N 50°48' W 001°07'0 0.0
2019-Jun-08 21:30N 50°48' W 001°07'0 0.0
2019-Jun-08 21:00N 50°48' W 001°07'0 0.0
2019-Jun-08 20:30N 50°48' W 001°07'0 0.0
2019-Jun-08 20:00N 50°48' W 001°07'0 0.0
2019-Jun-08 19:30N 50°48' W 001°07'0 0.0
2019-Jun-08 19:00N 50°48' W 001°07'0 0.0
2019-Jun-08 18:30N 50°48' W 001°07'0 0.0
2019-Jun-08 17:57N 50°48' W 001°07'0 0.0
2019-Jun-08 17:30N 50°48' W 001°07'0 0.0
2019-Jun-08 17:00N 50°48' W 001°07'0 0.0
2019-Jun-08 16:30N 50°48' W 001°07'0 0.0
2019-Jun-08 16:00N 50°48' W 001°07'0 0.0
2019-Jun-08 15:30N 50°48' W 001°07'0 0.0
2019-Jun-08 15:00N 50°48' W 001°07'0 0.0
2019-Jun-08 14:30N 50°48' W 001°07'0 0.0
2019-Jun-08 14:00N 50°48' W 001°07'0 0.0
2019-Jun-08 13:30N 50°48' W 001°07'0 0.0
2019-Jun-08 13:00N 50°48' W 001°07'0 0.0
2019-Jun-08 12:27N 50°48' W 001°07'0 0.0
2019-Jun-08 12:00N 50°48' W 001°07'0 0.0
2019-Jun-08 11:30N 50°48' W 001°07'0 0.0
2019-Jun-08 11:00N 50°48' W 001°07'0 0.0
2019-Jun-08 10:30N 50°48' W 001°07'0 0.0
2019-Jun-08 10:00N 50°48' W 001°07'0 0.0
2019-Jun-08 09:30N 50°48' W 001°07'0 0.0
2019-Jun-08 09:00N 50°48' W 001°07'0 0.0
2019-Jun-08 08:30N 50°48' W 001°07'0 0.0
2019-Jun-08 08:00N 50°48' W 001°07'0 0.0
2019-Jun-08 07:27N 50°48' W 001°07'0 0.0
2019-Jun-08 07:00N 50°48' W 001°07'0 0.0
2019-Jun-08 06:30N 50°48' W 001°07'0 0.0
2019-Jun-08 06:00N 50°48' W 001°07'0 0.0
2019-Jun-08 05:30N 50°48' W 001°07'0 0.0
2019-Jun-08 05:00N 50°48' W 001°07'0 0.0
2019-Jun-08 04:30N 50°48' W 001°07'0 0.0
2019-Jun-08 04:00N 50°48' W 001°07'0 0.0
2019-Jun-08 03:30N 50°48' W 001°07'0 0.0
2019-Jun-08 03:00N 50°48' W 001°07'0 0.0
2019-Jun-08 02:30N 50°48' W 001°07'0 0.0
2019-Jun-08 02:00N 50°48' W 001°07'0 0.0
2019-Jun-08 01:27N 50°48' W 001°07'0 0.0
2019-Jun-08 01:00N 50°48' W 001°07'0 0.0
2019-Jun-08 00:30N 50°48' W 001°07'0 0.0
2019-Jun-08 00:00N 50°48' W 001°07'0 0.0
2019-Jun-07 23:30N 50°48' W 001°07'0 0.0
2019-Jun-07 23:00N 50°48' W 001°07'0 0.0
2019-Jun-07 22:30N 50°48' W 001°07'0 0.0
2019-Jun-07 22:00N 50°48' W 001°07'0 0.0
2019-Jun-07 21:30N 50°48' W 001°07'0 0.0
2019-Jun-07 21:00N 50°48' W 001°07'0 0.0
2019-Jun-07 20:30N 50°48' W 001°07'0 0.0
2019-Jun-07 20:00N 50°48' W 001°07'0 0.0
2019-Jun-07 19:30N 50°48' W 001°07'0 0.0
2019-Jun-07 19:00N 50°48' W 001°07'0 0.0
2019-Jun-07 18:30N 50°48' W 001°07'0 0.0
2019-Jun-07 18:00N 50°48' W 001°07'0 0.0
2019-Jun-07 17:30N 50°48' W 001°07'0 0.0
2019-Jun-07 17:00N 50°48' W 001°07'0 0.0
2019-Jun-07 16:30N 50°48' W 001°07'0 0.0
2019-Jun-07 16:00N 50°48' W 001°07'0 0.0
2019-Jun-07 15:30N 50°48' W 001°07'0 0.0
2019-Jun-07 15:00N 50°48' W 001°07'0 0.0
2019-Jun-07 14:30N 50°48' W 001°07'0 0.0
2019-Jun-07 14:00N 50°48' W 001°07'0 0.0
2019-Jun-07 13:30N 50°48' W 001°07'0 0.0
2019-Jun-07 13:00N 50°48' W 001°07'0 0.0
2019-Jun-07 12:30N 50°48' W 001°07'0 0.0
2019-Jun-07 12:00N 50°48' W 001°07'0 0.0
2019-Jun-07 11:30N 50°48' W 001°07'0 0.0
2019-Jun-07 11:00N 50°48' W 001°07'0 0.0
2019-Jun-07 10:30N 50°48' W 001°07'0 0.0
2019-Jun-07 10:00N 50°48' W 001°07'0 0.0
2019-Jun-07 09:30N 50°48' W 001°07'0 0.0
2019-Jun-07 09:00N 50°48' W 001°07'1 2.0
2019-Jun-07 08:30N 50°47' W 001°06'3 6.4
2019-Jun-07 08:00N 50°44' W 001°04'1 1.6
2019-Jun-07 07:30N 50°43' W 001°04'0 0.1
2019-Jun-07 06:06N 50°43' W 001°04'0 0.1
2019-Jun-07 06:00N 50°43' W 001°04'0 0.0
2019-Jun-07 05:30N 50°43' W 001°04'0 0.0
2019-Jun-07 03:51N 50°43' W 001°04'0 0.0
2019-Jun-07 03:21N 50°43' W 001°04'0 0.0
2019-Jun-07 02:51N 50°43' W 001°04'0 0.0
2019-Jun-07 02:00N 50°43' W 001°04'0 0.0
2019-Jun-07 00:39N 50°43' W 001°04'0 0.0
2019-Jun-07 00:11N 50°43' W 001°04'0 0.0
2019-Jun-06 23:39N 50°43' W 001°04'0 0.0
2019-Jun-06 23:27N 50°43' W 001°04'0 0.0
2019-Jun-06 22:59N 50°43' W 001°04'0 0.0
2019-Jun-06 22:24N 50°43' W 001°04'0 0.0
2019-Jun-06 21:54N 50°43' W 001°04'0 0.0
2019-Jun-06 20:51N 50°43' W 001°04'0 0.0
2019-Jun-06 20:11N 50°43' W 001°04'0 0.0
2019-Jun-06 19:54N 50°43' W 001°04'0 0.0
2019-Jun-06 19:27N 50°43' W 001°04'0 0.0
2019-Jun-06 18:59N 50°43' W 001°04'0 0.1
2019-Jun-06 18:27N 50°43' W 001°04'0 0.0
2019-Jun-06 17:18N 50°43' W 001°04'0 0.0
2019-Jun-06 16:57N 50°43' W 001°04'0 0.0
2019-Jun-06 16:30N 50°43' W 001°04'0 0.1
2019-Jun-06 15:48N 50°43' W 001°04'0 0.0
2019-Jun-06 15:30N 50°43' W 001°04'0 0.0
2019-Jun-06 14:59N 50°43' W 001°04'0 0.0
2019-Jun-06 14:29N 50°43' W 001°04'0 0.0
2019-Jun-06 13:59N 50°43' W 001°04'0 0.0
2019-Jun-06 13:20N 50°43' W 001°04'0 0.0
2019-Jun-06 12:50N 50°43' W 001°04'0 0.0
2019-Jun-06 12:24N 50°43' W 001°04'0 0.0
2019-Jun-06 11:50N 50°43' W 001°04'0 0.0
2019-Jun-06 11:23N 50°43' W 001°04'0 0.0
2019-Jun-06 10:57N 50°43' W 001°04'0 0.0
2019-Jun-06 10:23N 50°43' W 001°04'0 0.1
2019-Jun-06 09:53N 50°43' W 001°04'0 0.0
2019-Jun-06 09:27N 50°43' W 001°04'0 0.0
2019-Jun-06 08:39N 50°43' W 001°04'0 0.1
2019-Jun-06 08:11N 50°43' W 001°04'0 0.0
2019-Jun-06 07:57N 50°43' W 001°04'0 0.0
2019-Jun-06 07:26N 50°43' W 001°04'0 0.0
2019-Jun-06 06:38N 50°43' W 001°04'0 0.0
2019-Jun-06 06:26N 50°43' W 001°04'0 0.1
2019-Jun-06 05:59N 50°43' W 001°04'0 0.0
2019-Jun-06 05:11N 50°43' W 001°04'0 0.0
2019-Jun-06 04:03N 50°43' W 001°04'0 0.0
2019-Jun-06 03:59N 50°43' W 001°04'0 0.1
2019-Jun-06 03:11N 50°43' W 001°04'0 0.0
2019-Jun-06 02:47N 50°43' W 001°04'0 0.0
2019-Jun-06 02:14N 50°43' W 001°04'0 0.0
2019-Jun-06 01:59N 50°43' W 001°04'0 0.0
2019-Jun-06 01:26N 50°43' W 001°04'0 0.0
2019-Jun-06 00:47N 50°43' W 001°04'0 0.0
2019-Jun-06 00:29N 50°43' W 001°04'0 0.0
2019-Jun-05 23:59N 50°43' W 001°04'0 0.0
2019-Jun-05 23:24N 50°43' W 001°04'1 2.3
2019-Jun-05 23:00N 50°43' W 001°03'4 7.2
2019-Jun-05 22:30N 50°39' W 001°05'4 7.9
2019-Jun-05 22:01N 50°36' W 001°08'6 8.4
2019-Jun-05 21:15N 50°31' W 001°14'2 7.5
2019-Jun-05 21:00N 50°30' W 001°16'56 4.2
2019-Jun-05 07:46N 50°21' W 002°43'1 5.3
2019-Jun-05 07:30N 50°21' W 002°45'3 5.1
2019-Jun-05 07:00N 50°20' W 002°49'2 4.8
2019-Jun-05 06:30N 50°20' W 002°53'2 4.9
2019-Jun-05 06:00N 50°20' W 002°56'2 4.8
2019-Jun-05 05:30N 50°20' W 003°00'3 5.1
2019-Jun-05 05:00N 50°18' W 003°03'3 5.1
2019-Jun-05 04:30N 50°16' W 003°06'3 5.0
2019-Jun-05 04:00N 50°14' W 003°08'2 4.4
2019-Jun-05 03:30N 50°12' W 003°11'2 4.1
2019-Jun-05 03:00N 50°11' W 003°13'2 3.3
2019-Jun-05 02:30N 50°10' W 003°15'1 2.8
2019-Jun-05 02:00N 50°09' W 003°17'1 2.6
2019-Jun-05 01:30N 50°09' W 003°18'1 2.9
2019-Jun-05 01:00N 50°08' W 003°20'2 3.7
2019-Jun-05 00:30N 50°07' W 003°23'2 4.3
2019-Jun-05 00:00N 50°06' W 003°26'2 3.8
2019-Jun-04 23:30N 50°05' W 003°28'2 4.4
2019-Jun-04 23:00N 50°05' W 003°32'3 5.3
2019-Jun-04 22:30N 50°04' W 003°36'3 6.4
2019-Jun-04 22:00N 50°04' W 003°41'4 7.1
2019-Jun-04 21:30N 50°03' W 003°46'4 7.0
2019-Jun-04 21:00N 50°02' W 003°51'4 7.3
2019-Jun-04 20:30N 50°01' W 003°57'  

Dump ship's entire track history